Marshall, Minnesota
Current Conditions -  °F | °C
As of 8:15 PM on Friday 26 Dec 2014 (Local Time) from KMML Reporting Station
Overcast Overcast  
Wind Chill: -11°   Ceiling: 1500
Heat Index: -4°   Visibility: 5mi
Dew Point: -7°   Wind: 17mph
Humidity: 80%   Direction: 360°N
Pressure: 30.11"   Gusts: NA
Location:  44.45°N, 95.79°W
Report Text: KMML 270215Z AUTO 36015KT 5SM BKN015 OVC023 M04/M07 A3011 RMK AO1
Loading
Personal Weather Stations






























Interactive Weather Map New forecast layout! Learn more

10-Day Weather Forecast

Advertisements
Track Severe Weather on mobile